Fort Pike — WAA9418 — position and weather

sailwx.info

Track history (hours):
 
Tides and Currents Weather Stations Pressure Air Temp Water Temp Dewpoint Dewpoint Depression Visibility Wind Speed Wind Dir Waves Ship Positions

Fort Pike

Owner: Salisbury Towing Corporation, Chesapeak, VA. More information available from US FCC via Universal Licensing System and Coast Guard Vessel Documentation Center.

Last reported at 2016-Dec-11 07:31 UTC. Time now 2016-Dec-11 08:10 UTC.
Position N 36°50' W 076°17'.

Length 18 m; draft 2.5 m.

Type: Tug. MMSI: 366948310.

Date/timePositionNaut miles runAvg speedWind from/ knotsBaromVisibWave heightAir tempDewpointWater temp
2016-Dec-11 07:31N 36°50' W 076°17'0 0.0
2016-Dec-10 23:10N 36°50' W 076°17'0 0.0
2016-Dec-10 22:31N 36°50' W 076°17'0 0.0
2016-Dec-10 21:31N 36°50' W 076°17'0 0.0
2016-Dec-10 20:31N 36°50' W 076°17'0 0.0
2016-Dec-10 19:31N 36°50' W 076°17'0 0.0
2016-Dec-10 18:28N 36°50' W 076°17'0 0.0
2016-Dec-10 17:28N 36°50' W 076°17'0 0.0
2016-Dec-10 16:31N 36°50' W 076°17'0 0.0
2016-Dec-10 15:31N 36°50' W 076°17'0 0.0
2016-Dec-10 14:31N 36°50' W 076°17'0 0.0
2016-Dec-10 13:31N 36°50' W 076°17'0 0.0
2016-Dec-10 12:19N 36°50' W 076°17'0 0.0
2016-Dec-10 11:31N 36°50' W 076°17'0 0.0
2016-Dec-10 10:31N 36°50' W 076°17'0 0.0
2016-Dec-10 09:31N 36°50' W 076°17'0 0.0
2016-Dec-10 08:31N 36°50' W 076°17'0 0.0
2016-Dec-10 07:31N 36°50' W 076°17'0 0.0
2016-Dec-10 06:31N 36°50' W 076°17'0 0.0
2016-Dec-10 05:31N 36°50' W 076°17'0 0.0
2016-Dec-10 04:31N 36°50' W 076°17'0 0.0
2016-Dec-10 03:28N 36°50' W 076°17'0 0.0
2016-Dec-10 02:28N 36°50' W 076°17'0 0.0
2016-Dec-10 01:31N 36°50' W 076°17'0 0.0
2016-Dec-10 00:31N 36°50' W 076°17'0 0.0
2016-Dec-09 23:31N 36°50' W 076°17'0 0.0
2016-Dec-09 22:31N 36°50' W 076°17'0 0.0
2016-Dec-09 21:31N 36°50' W 076°17'0 0.0
2016-Dec-09 20:31N 36°50' W 076°17'0 0.0
2016-Dec-09 19:31N 36°50' W 076°17'0 0.0
2016-Dec-09 18:31N 36°50' W 076°17'0 0.0
2016-Dec-09 17:31N 36°50' W 076°17'0 0.0
2016-Dec-09 16:28N 36°50' W 076°17'0 0.0
2016-Dec-09 15:28N 36°50' W 076°17'0 0.0
2016-Dec-09 14:31N 36°50' W 076°17'0 0.0
2016-Dec-09 13:31N 36°50' W 076°17'0 0.0
2016-Dec-09 12:28N 36°50' W 076°17'0 0.0
2016-Dec-09 11:31N 36°50' W 076°17'0 0.0
2016-Dec-09 10:31N 36°50' W 076°17'0 0.0
2016-Dec-09 09:31N 36°50' W 076°17'0 0.0
2016-Dec-09 08:31N 36°50' W 076°17'0 0.0
2016-Dec-09 07:31N 36°50' W 076°17'0 0.0
2016-Dec-09 06:31N 36°50' W 076°17'0 0.0
2016-Dec-09 05:28N 36°50' W 076°17'0 0.0
2016-Dec-09 04:31N 36°50' W 076°17'0 0.0
2016-Dec-09 03:31N 36°50' W 076°17'0 0.0
2016-Dec-09 02:31N 36°50' W 076°17'0 0.0
2016-Dec-09 01:31N 36°50' W 076°17'0 0.0
2016-Dec-09 00:31N 36°50' W 076°17'0 0.0
2016-Dec-08 23:31N 36°50' W 076°17'0 0.0
2016-Dec-08 22:31N 36°50' W 076°17'0 0.0
2016-Dec-08 21:31N 36°50' W 076°17'0 0.0
2016-Dec-08 20:31N 36°50' W 076°17'0 0.0
2016-Dec-08 19:31N 36°50' W 076°17'0 0.0
2016-Dec-08 18:31N 36°50' W 076°17'0 0.0
2016-Dec-08 17:31N 36°50' W 076°17'0 0.0
2016-Dec-08 16:31N 36°50' W 076°17'0 0.0
2016-Dec-08 15:31N 36°50' W 076°17'0 0.0
2016-Dec-08 14:28N 36°50' W 076°17'0 0.1
2016-Dec-08 13:34N 36°50' W 076°18'1 1.2
2016-Dec-08 12:33N 36°49' W 076°17'2 1.9
2016-Dec-08 11:34N 36°50' W 076°16'3 3.3
2016-Dec-08 10:33N 36°47' W 076°18'3 3.2
2016-Dec-08 09:29N 36°50' W 076°16'5 0.9
2016-Dec-08 04:33N 36°53' W 076°20'4 4.5
2016-Dec-08 03:34N 36°50' W 076°16'1 1.1
2016-Dec-08 02:33N 36°51' W 076°17'0 0.4
2016-Dec-08 01:33N 36°50' W 076°17'0 0.1
2016-Dec-08 00:33N 36°50' W 076°17'1 0.6
2016-Dec-07 23:33N 36°50' W 076°17'2 2.2
2016-Dec-07 22:33N 36°50' W 076°15'2 1.9
2016-Dec-07 21:33N 36°51' W 076°17'128 5.5
2016-Dec-06 22:26N 38°58' W 076°23'25 6.5
2016-Dec-06 18:32N 39°21' W 076°10'9 4.3
2016-Dec-06 16:33N 39°28' W 076°03'5 4.6
2016-Dec-06 15:33N 39°33' W 076°05'0 0.4
2016-Dec-06 14:33N 39°33' W 076°05'7 6.9
2016-Dec-06 13:33N 39°26' W 076°02'7 6.7
2016-Dec-06 12:33N 39°22' W 076°09'20 6.8
2016-Dec-06 09:33N 39°04' W 076°21'7 7.0
2016-Dec-06 08:28N 38°57' W 076°24'127 7.5
2016-Dec-05 15:30N 36°50' W 076°17'1 0.2
2016-Dec-05 12:18N 36°50' W 076°17'0 0.0
2016-Dec-05 10:33N 36°50' W 076°17'0 0.0
2016-Dec-05 09:15N 36°50' W 076°17'0 0.0
2016-Dec-05 08:30N 36°50' W 076°17'0 0.0
2016-Dec-05 07:33N 36°50' W 076°17'0 0.0
2016-Dec-05 06:33N 36°50' W 076°17'0 0.0
2016-Dec-05 05:33N 36°50' W 076°17'0 0.0
2016-Dec-05 04:33N 36°50' W 076°17'0 0.0
2016-Dec-05 03:33N 36°50' W 076°17'0 0.0
2016-Dec-05 02:33N 36°50' W 076°17'0 0.0
2016-Dec-05 01:33N 36°50' W 076°17'0 0.0
2016-Dec-05 00:33N 36°50' W 076°17'0 0.0
2016-Dec-04 23:33N 36°50' W 076°17'0 0.0
2016-Dec-04 22:33N 36°50' W 076°17'0 0.0
2016-Dec-04 21:33N 36°50' W 076°17'0 0.0
2016-Dec-04 20:33N 36°50' W 076°17'0 0.0
2016-Dec-04 19:33N 36°50' W 076°17'0 0.0
2016-Dec-04 18:33N 36°50' W 076°17'0 0.0
2016-Dec-04 17:33N 36°50' W 076°17'0 0.0
2016-Dec-04 16:30N 36°50' W 076°17'0 0.0
2016-Dec-04 15:30N 36°50' W 076°17'0 0.0
2016-Dec-04 14:18N 36°50' W 076°17'0 0.0
2016-Dec-04 13:33N 36°50' W 076°17'0 0.0
2016-Dec-04 12:33N 36°50' W 076°17'0 0.0
2016-Dec-04 11:33N 36°50' W 076°17'0 0.0
2016-Dec-04 10:33N 36°50' W 076°17'0 0.0
2016-Dec-04 09:33N 36°50' W 076°17'0 0.0
2016-Dec-04 08:33N 36°50' W 076°17'0 0.0
2016-Dec-04 07:33N 36°50' W 076°17'0 0.0
2016-Dec-04 06:33N 36°50' W 076°17'0 0.0
2016-Dec-04 05:33N 36°50' W 076°17'0 0.0
2016-Dec-04 04:33N 36°50' W 076°17'0 0.0
2016-Dec-04 03:33N 36°50' W 076°17'0 0.0
2016-Dec-04 02:33N 36°50' W 076°17'0 0.0
2016-Dec-04 01:33N 36°50' W 076°17'0 0.0
2016-Dec-04 00:33N 36°50' W 076°17'0 0.0
2016-Dec-03 22:09N 36°50' W 076°17'0 0.0
2016-Dec-03 21:33N 36°50' W 076°17'0 0.0
2016-Dec-03 20:33N 36°50' W 076°17'0 0.0
2016-Dec-03 19:33N 36°50' W 076°17'0 0.0
2016-Dec-03 18:33N 36°50' W 076°17'0 0.0
2016-Dec-03 17:33N 36°50' W 076°17'0 0.0
2016-Dec-03 16:33N 36°50' W 076°17'0 0.0
2016-Dec-03 15:33N 36°50' W 076°17'0 0.0
2016-Dec-03 14:32N 36°50' W 076°17'0 0.0
2016-Dec-03 13:33N 36°50' W 076°17'0 0.0
2016-Dec-03 12:33N 36°50' W 076°17'0 0.0
2016-Dec-03 11:33N 36°50' W 076°17'0 0.0
2016-Dec-03 10:32N 36°50' W 076°17'0 0.0
2016-Dec-03 09:33N 36°50' W 076°17'0 0.0
2016-Dec-03 08:21N 36°50' W 076°17'0 0.0
2016-Dec-03 07:23N 36°50' W 076°17'0 0.0
2016-Dec-03 06:33N 36°50' W 076°17'0 0.0
2016-Dec-03 05:33N 36°50' W 076°17'0 0.0
2016-Dec-03 04:32N 36°50' W 076°17'0 0.0
2016-Dec-03 03:32N 36°50' W 076°17'0 0.0
2016-Dec-03 02:32N 36°50' W 076°17'0 0.0
2016-Dec-03 01:32N 36°50' W 076°17'0 0.0
2016-Dec-03 00:32N 36°50' W 076°17'0 0.0
2016-Dec-02 23:32N 36°50' W 076°17'0 0.0
2016-Dec-02 22:29N 36°50' W 076°17'0 0.0
2016-Dec-02 20:29N 36°50' W 076°17'0 0.0
2016-Dec-02 19:17N 36°50' W 076°17'0 0.0
2016-Dec-02 18:32N 36°50' W 076°17'0 0.0
2016-Dec-02 17:29N 36°50' W 076°17'0 0.0
2016-Dec-02 16:32N 36°50' W 076°17'0 0.0
2016-Dec-02 15:32N 36°50' W 076°17'0 0.0
2016-Dec-02 14:32N 36°50' W 076°17'0 0.0
2016-Dec-02 13:32N 36°50' W 076°17'0 0.0
2016-Dec-02 12:33N 36°50' W 076°17'0 0.0
2016-Dec-02 11:32N 36°50' W 076°17'0 0.0
2016-Dec-02 10:32N 36°50' W 076°17'0 0.0
2016-Dec-02 09:32N 36°50' W 076°17'0 0.0
2016-Dec-02 08:32N 36°50' W 076°17'0 0.0
2016-Dec-02 07:32N 36°50' W 076°17'0 0.0
2016-Dec-02 06:32N 36°50' W 076°17'0 0.0
2016-Dec-02 05:32N 36°50' W 076°17'0 0.0
2016-Dec-02 04:32N 36°50' W 076°17'0 0.0
2016-Dec-02 03:32N 36°50' W 076°17'0 0.0
2016-Dec-02 02:29N 36°50' W 076°17'0 0.0
2016-Dec-02 01:29N 36°50' W 076°17'0 0.0
2016-Dec-02 00:32N 36°50' W 076°17'0 0.0
2016-Dec-01 23:32N 36°50' W 076°17'0 0.0
2016-Dec-01 22:32N 36°50' W 076°17'0 0.0
2016-Dec-01 21:32N 36°50' W 076°17'0 0.0
2016-Dec-01 20:32N 36°50' W 076°17'0 0.0
2016-Dec-01 19:32N 36°50' W 076°17'0 0.0
2016-Dec-01 18:32N 36°50' W 076°17'0 0.0
2016-Dec-01 17:32N 36°50' W 076°17'0 0.0
2016-Dec-01 16:32N 36°50' W 076°17'2 2.2
2016-Dec-01 15:31N 36°51' W 076°20'5 1.6
2016-Dec-01 12:24N 36°57' W 076°20'6 7.0
2016-Dec-01 11:33N 36°51' W 076°18'1 1.3
2016-Dec-01 10:33N 36°50' W 076°16'6 6.1
2016-Dec-01 09:33N 36°44' W 076°18'3 3.0
2016-Dec-01 08:32N 36°47' W 076°18'3 3.4
2016-Dec-01 07:33N 36°50' W 076°16'  
Track history (hours):
 
Tides and Currents Weather Stations Pressure Air Temp Water Temp Dewpoint Dewpoint Depression Visibility Wind Speed Wind Dir Waves Ship Positions

Fort Pike

Owner: Salisbury Towing Corporation, Chesapeak, VA. More information available from US FCC via Universal Licensing System and Coast Guard Vessel Documentation Center.

Last reported at 2016-Dec-11 07:31 UTC. Time now 2016-Dec-11 08:10 UTC.
Position N 36°50' W 076°17'.

Length 18 m; draft 2.5 m.

Type: Tug. MMSI: 366948310.

Date/timePositionNaut miles runAvg speedWind from/ knotsBaromVisibWave heightAir tempDewpointWater temp
2016-Dec-11 07:31N 36°50' W 076°17'0 0.0
2016-Dec-10 23:10N 36°50' W 076°17'0 0.0
2016-Dec-10 22:31N 36°50' W 076°17'0 0.0
2016-Dec-10 21:31N 36°50' W 076°17'0 0.0
2016-Dec-10 20:31N 36°50' W 076°17'0 0.0
2016-Dec-10 19:31N 36°50' W 076°17'0 0.0
2016-Dec-10 18:28N 36°50' W 076°17'0 0.0
2016-Dec-10 17:28N 36°50' W 076°17'0 0.0
2016-Dec-10 16:31N 36°50' W 076°17'0 0.0
2016-Dec-10 15:31N 36°50' W 076°17'0 0.0
2016-Dec-10 14:31N 36°50' W 076°17'0 0.0
2016-Dec-10 13:31N 36°50' W 076°17'0 0.0
2016-Dec-10 12:19N 36°50' W 076°17'0 0.0
2016-Dec-10 11:31N 36°50' W 076°17'0 0.0
2016-Dec-10 10:31N 36°50' W 076°17'0 0.0
2016-Dec-10 09:31N 36°50' W 076°17'0 0.0
2016-Dec-10 08:31N 36°50' W 076°17'0 0.0
2016-Dec-10 07:31N 36°50' W 076°17'0 0.0
2016-Dec-10 06:31N 36°50' W 076°17'0 0.0
2016-Dec-10 05:31N 36°50' W 076°17'0 0.0
2016-Dec-10 04:31N 36°50' W 076°17'0 0.0
2016-Dec-10 03:28N 36°50' W 076°17'0 0.0
2016-Dec-10 02:28N 36°50' W 076°17'0 0.0
2016-Dec-10 01:31N 36°50' W 076°17'0 0.0
2016-Dec-10 00:31N 36°50' W 076°17'0 0.0
2016-Dec-09 23:31N 36°50' W 076°17'0 0.0
2016-Dec-09 22:31N 36°50' W 076°17'0 0.0
2016-Dec-09 21:31N 36°50' W 076°17'0 0.0
2016-Dec-09 20:31N 36°50' W 076°17'0 0.0
2016-Dec-09 19:31N 36°50' W 076°17'0 0.0
2016-Dec-09 18:31N 36°50' W 076°17'0 0.0
2016-Dec-09 17:31N 36°50' W 076°17'0 0.0
2016-Dec-09 16:28N 36°50' W 076°17'0 0.0
2016-Dec-09 15:28N 36°50' W 076°17'0 0.0
2016-Dec-09 14:31N 36°50' W 076°17'0 0.0
2016-Dec-09 13:31N 36°50' W 076°17'0 0.0
2016-Dec-09 12:28N 36°50' W 076°17'0 0.0
2016-Dec-09 11:31N 36°50' W 076°17'0 0.0
2016-Dec-09 10:31N 36°50' W 076°17'0 0.0
2016-Dec-09 09:31N 36°50' W 076°17'0 0.0
2016-Dec-09 08:31N 36°50' W 076°17'0 0.0
2016-Dec-09 07:31N 36°50' W 076°17'0 0.0
2016-Dec-09 06:31N 36°50' W 076°17'0 0.0
2016-Dec-09 05:28N 36°50' W 076°17'0 0.0
2016-Dec-09 04:31N 36°50' W 076°17'0 0.0
2016-Dec-09 03:31N 36°50' W 076°17'0 0.0
2016-Dec-09 02:31N 36°50' W 076°17'0 0.0
2016-Dec-09 01:31N 36°50' W 076°17'0 0.0
2016-Dec-09 00:31N 36°50' W 076°17'0 0.0
2016-Dec-08 23:31N 36°50' W 076°17'0 0.0
2016-Dec-08 22:31N 36°50' W 076°17'0 0.0
2016-Dec-08 21:31N 36°50' W 076°17'0 0.0
2016-Dec-08 20:31N 36°50' W 076°17'0 0.0
2016-Dec-08 19:31N 36°50' W 076°17'0 0.0
2016-Dec-08 18:31N 36°50' W 076°17'0 0.0
2016-Dec-08 17:31N 36°50' W 076°17'0 0.0
2016-Dec-08 16:31N 36°50' W 076°17'0 0.0
2016-Dec-08 15:31N 36°50' W 076°17'0 0.0
2016-Dec-08 14:28N 36°50' W 076°17'0 0.1
2016-Dec-08 13:34N 36°50' W 076°18'1 1.2
2016-Dec-08 12:33N 36°49' W 076°17'2 1.9
2016-Dec-08 11:34N 36°50' W 076°16'3 3.3
2016-Dec-08 10:33N 36°47' W 076°18'3 3.2
2016-Dec-08 09:29N 36°50' W 076°16'5 0.9
2016-Dec-08 04:33N 36°53' W 076°20'4 4.5
2016-Dec-08 03:34N 36°50' W 076°16'1 1.1
2016-Dec-08 02:33N 36°51' W 076°17'0 0.4
2016-Dec-08 01:33N 36°50' W 076°17'0 0.1
2016-Dec-08 00:33N 36°50' W 076°17'1 0.6
2016-Dec-07 23:33N 36°50' W 076°17'2 2.2
2016-Dec-07 22:33N 36°50' W 076°15'2 1.9
2016-Dec-07 21:33N 36°51' W 076°17'128 5.5
2016-Dec-06 22:26N 38°58' W 076°23'25 6.5
2016-Dec-06 18:32N 39°21' W 076°10'9 4.3
2016-Dec-06 16:33N 39°28' W 076°03'5 4.6
2016-Dec-06 15:33N 39°33' W 076°05'0 0.4
2016-Dec-06 14:33N 39°33' W 076°05'7 6.9
2016-Dec-06 13:33N 39°26' W 076°02'7 6.7
2016-Dec-06 12:33N 39°22' W 076°09'20 6.8
2016-Dec-06 09:33N 39°04' W 076°21'7 7.0
2016-Dec-06 08:28N 38°57' W 076°24'127 7.5
2016-Dec-05 15:30N 36°50' W 076°17'1 0.2
2016-Dec-05 12:18N 36°50' W 076°17'0 0.0
2016-Dec-05 10:33N 36°50' W 076°17'0 0.0
2016-Dec-05 09:15N 36°50' W 076°17'0 0.0
2016-Dec-05 08:30N 36°50' W 076°17'0 0.0
2016-Dec-05 07:33N 36°50' W 076°17'0 0.0
2016-Dec-05 06:33N 36°50' W 076°17'0 0.0
2016-Dec-05 05:33N 36°50' W 076°17'0 0.0
2016-Dec-05 04:33N 36°50' W 076°17'0 0.0
2016-Dec-05 03:33N 36°50' W 076°17'0 0.0
2016-Dec-05 02:33N 36°50' W 076°17'0 0.0
2016-Dec-05 01:33N 36°50' W 076°17'0 0.0
2016-Dec-05 00:33N 36°50' W 076°17'0 0.0
2016-Dec-04 23:33N 36°50' W 076°17'0 0.0
2016-Dec-04 22:33N 36°50' W 076°17'0 0.0
2016-Dec-04 21:33N 36°50' W 076°17'0 0.0
2016-Dec-04 20:33N 36°50' W 076°17'0 0.0
2016-Dec-04 19:33N 36°50' W 076°17'0 0.0
2016-Dec-04 18:33N 36°50' W 076°17'0 0.0
2016-Dec-04 17:33N 36°50' W 076°17'0 0.0
2016-Dec-04 16:30N 36°50' W 076°17'0 0.0
2016-Dec-04 15:30N 36°50' W 076°17'0 0.0
2016-Dec-04 14:18N 36°50' W 076°17'0 0.0
2016-Dec-04 13:33N 36°50' W 076°17'0 0.0
2016-Dec-04 12:33N 36°50' W 076°17'0 0.0
2016-Dec-04 11:33N 36°50' W 076°17'0 0.0
2016-Dec-04 10:33N 36°50' W 076°17'0 0.0
2016-Dec-04 09:33N 36°50' W 076°17'0 0.0
2016-Dec-04 08:33N 36°50' W 076°17'0 0.0
2016-Dec-04 07:33N 36°50' W 076°17'0 0.0
2016-Dec-04 06:33N 36°50' W 076°17'0 0.0
2016-Dec-04 05:33N 36°50' W 076°17'0 0.0
2016-Dec-04 04:33N 36°50' W 076°17'0 0.0
2016-Dec-04 03:33N 36°50' W 076°17'0 0.0
2016-Dec-04 02:33N 36°50' W 076°17'0 0.0
2016-Dec-04 01:33N 36°50' W 076°17'0 0.0
2016-Dec-04 00:33N 36°50' W 076°17'0 0.0
2016-Dec-03 22:09N 36°50' W 076°17'0 0.0
2016-Dec-03 21:33N 36°50' W 076°17'0 0.0
2016-Dec-03 20:33N 36°50' W 076°17'0 0.0
2016-Dec-03 19:33N 36°50' W 076°17'0 0.0
2016-Dec-03 18:33N 36°50' W 076°17'0 0.0
2016-Dec-03 17:33N 36°50' W 076°17'0 0.0
2016-Dec-03 16:33N 36°50' W 076°17'0 0.0
2016-Dec-03 15:33N 36°50' W 076°17'0 0.0
2016-Dec-03 14:32N 36°50' W 076°17'0 0.0
2016-Dec-03 13:33N 36°50' W 076°17'0 0.0
2016-Dec-03 12:33N 36°50' W 076°17'0 0.0
2016-Dec-03 11:33N 36°50' W 076°17'0 0.0
2016-Dec-03 10:32N 36°50' W 076°17'0 0.0
2016-Dec-03 09:33N 36°50' W 076°17'0 0.0
2016-Dec-03 08:21N 36°50' W 076°17'0 0.0
2016-Dec-03 07:23N 36°50' W 076°17'0 0.0
2016-Dec-03 06:33N 36°50' W 076°17'0 0.0
2016-Dec-03 05:33N 36°50' W 076°17'0 0.0
2016-Dec-03 04:32N 36°50' W 076°17'0 0.0
2016-Dec-03 03:32N 36°50' W 076°17'0 0.0
2016-Dec-03 02:32N 36°50' W 076°17'0 0.0
2016-Dec-03 01:32N 36°50' W 076°17'0 0.0
2016-Dec-03 00:32N 36°50' W 076°17'0 0.0
2016-Dec-02 23:32N 36°50' W 076°17'0 0.0
2016-Dec-02 22:29N 36°50' W 076°17'0 0.0
2016-Dec-02 20:29N 36°50' W 076°17'0 0.0
2016-Dec-02 19:17N 36°50' W 076°17'0 0.0
2016-Dec-02 18:32N 36°50' W 076°17'0 0.0
2016-Dec-02 17:29N 36°50' W 076°17'0 0.0
2016-Dec-02 16:32N 36°50' W 076°17'0 0.0
2016-Dec-02 15:32N 36°50' W 076°17'0 0.0
2016-Dec-02 14:32N 36°50' W 076°17'0 0.0
2016-Dec-02 13:32N 36°50' W 076°17'0 0.0
2016-Dec-02 12:33N 36°50' W 076°17'0 0.0
2016-Dec-02 11:32N 36°50' W 076°17'0 0.0
2016-Dec-02 10:32N 36°50' W 076°17'0 0.0
2016-Dec-02 09:32N 36°50' W 076°17'0 0.0
2016-Dec-02 08:32N 36°50' W 076°17'0 0.0
2016-Dec-02 07:32N 36°50' W 076°17'0 0.0
2016-Dec-02 06:32N 36°50' W 076°17'0 0.0
2016-Dec-02 05:32N 36°50' W 076°17'0 0.0
2016-Dec-02 04:32N 36°50' W 076°17'0 0.0
2016-Dec-02 03:32N 36°50' W 076°17'0 0.0
2016-Dec-02 02:29N 36°50' W 076°17'0 0.0
2016-Dec-02 01:29N 36°50' W 076°17'0 0.0
2016-Dec-02 00:32N 36°50' W 076°17'0 0.0
2016-Dec-01 23:32N 36°50' W 076°17'0 0.0
2016-Dec-01 22:32N 36°50' W 076°17'0 0.0
2016-Dec-01 21:32N 36°50' W 076°17'0 0.0
2016-Dec-01 20:32N 36°50' W 076°17'0 0.0
2016-Dec-01 19:32N 36°50' W 076°17'0 0.0
2016-Dec-01 18:32N 36°50' W 076°17'0 0.0
2016-Dec-01 17:32N 36°50' W 076°17'0 0.0
2016-Dec-01 16:32N 36°50' W 076°17'2 2.2
2016-Dec-01 15:31N 36°51' W 076°20'5 1.6
2016-Dec-01 12:24N 36°57' W 076°20'6 7.0
2016-Dec-01 11:33N 36°51' W 076°18'1 1.3
2016-Dec-01 10:33N 36°50' W 076°16'6 6.1
2016-Dec-01 09:33N 36°44' W 076°18'3 3.0
2016-Dec-01 08:32N 36°47' W 076°18'3 3.4
2016-Dec-01 07:33N 36°50' W 076°16'  

Dump ship's entire track history